createdAt,value
2023-03-23T04:49:01.715Z,5.7
2023-03-23T04:50:00.918Z,6.5
2023-03-23T04:51:00.659Z,8.4
2023-03-23T04:52:00.733Z,10.3
2023-03-23T04:53:00.657Z,11.7
2023-03-23T04:54:00.663Z,13.2
2023-03-23T04:55:00.843Z,14.7
2023-03-23T04:56:00.658Z,15.1
2023-03-23T04:57:00.697Z,15.6
2023-03-23T04:58:00.657Z,17.8
2023-03-23T04:59:00.654Z,20.0
2023-03-23T05:02:13.685Z,27.4
2023-03-23T05:03:00.658Z,34.3
2023-03-23T05:04:00.663Z,41.1
2023-03-23T05:05:00.895Z,48.0
2023-03-23T05:06:00.934Z,67.1
2023-03-23T05:07:00.692Z,86.3
2023-03-23T05:08:00.669Z,110.9
2023-03-23T05:09:00.675Z,135.6
2023-03-23T05:10:00.880Z,160.3
2023-03-23T05:11:00.943Z,187.3
2023-03-23T05:12:00.702Z,214.4
2023-03-23T05:13:01.756Z,275.3
2023-03-23T05:14:00.692Z,336.1
2023-03-23T05:17:00.690Z,519.4
2023-03-23T05:18:00.667Z,581.5
2023-03-23T05:19:00.661Z,643.5
2023-03-23T05:20:00.879Z,705.6
2023-03-23T05:21:00.692Z,732.2
2023-03-23T05:22:00.687Z,758.8
2023-03-23T05:23:00.784Z,749.3
2023-03-23T05:24:00.677Z,739.9
2023-03-23T05:26:00.933Z,740.7
2023-03-23T05:27:00.709Z,750.9
2023-03-23T05:28:00.665Z,717.5
2023-03-23T05:29:00.667Z,684.0
2023-03-23T05:32:00.689Z,586.5
2023-03-23T05:33:00.680Z,557.8
2023-03-23T05:34:00.984Z,529.1
2023-03-23T05:35:01.177Z,500.3
2023-03-23T05:36:00.673Z,504.4
2023-03-23T05:37:01.288Z,508.5
2023-03-23T05:38:02.179Z,561.3
2023-03-23T05:39:00.662Z,614.2
2023-03-23T05:40:00.882Z,667.1
2023-03-23T05:41:00.661Z,719.8
2023-03-23T05:42:00.662Z,772.5
2023-03-23T05:43:00.696Z,874.9
2023-03-23T05:44:00.986Z,977.2
2023-03-23T05:47:01.693Z,1278.3
2023-03-23T05:48:00.820Z,1330.4
2023-03-23T05:49:00.665Z,1382.5
2023-03-23T05:50:01.474Z,1434.5
2023-03-23T05:51:00.658Z,1512.0
2023-03-23T05:52:00.663Z,1589.5
2023-03-23T05:53:00.720Z,1649.7
2023-03-23T05:54:00.998Z,1709.9
2023-03-23T05:55:01.159Z,1770.1
2023-03-23T05:56:00.665Z,1842.9
2023-03-23T05:57:00.700Z,1915.8
2023-03-23T05:58:00.687Z,2019.9
2023-03-23T05:59:00.672Z,2124.1
2023-03-23T06:02:00.677Z,2566.9
2023-03-23T06:03:00.692Z,2724.5
2023-03-23T06:04:00.731Z,2882.2
2023-03-23T06:07:00.671Z,3245.7
2023-03-23T06:08:00.702Z,3538.0
2023-03-23T06:09:00.748Z,3830.3
2023-03-23T06:10:15.687Z,4122.5
2023-03-23T06:11:01.221Z,4577.0
2023-03-23T06:12:00.672Z,5031.5
2023-03-23T06:13:00.708Z,5285.7
2023-03-23T06:42:01.055Z,11944.3
2023-03-23T06:43:01.436Z,13192.5
2023-03-23T06:44:01.057Z,13941.4
2023-03-23T06:45:01.944Z,14440.7
2023-03-23T06:47:01.058Z,22049.3
2023-03-23T06:48:01.060Z,24043.3
2023-03-23T06:49:01.059Z,25638.6
2023-03-23T06:50:01.536Z,26943.8
2023-03-23T06:51:01.064Z,26701.1
2023-03-23T06:52:01.057Z,26495.7
2023-03-23T06:53:01.067Z,25815.1
2023-03-23T06:54:01.058Z,25225.2
2023-03-23T06:55:01.836Z,25261.7
2023-03-23T06:57:01.064Z,26183.5
2023-03-23T06:58:01.060Z,26124.5
2023-03-23T06:59:01.064Z,26065.6
2023-03-23T07:02:01.097Z,21795.3
2023-03-23T07:03:01.059Z,20218.9
2023-03-23T07:04:01.060Z,18642.5
2023-03-23T07:07:01.070Z,15820.0
2023-03-23T07:08:01.059Z,16174.6
2023-03-23T07:32:00.824Z,60259.0
2023-03-23T07:33:00.828Z,61578.0
2023-03-23T07:34:01.035Z,62369.4
2023-03-23T07:37:00.823Z,63556.5
2023-03-23T07:38:00.829Z,63776.3
2023-03-23T07:39:00.832Z,63952.2
2023-03-23T07:40:01.105Z,64096.1
2023-03-23T07:41:00.825Z,62646.9
2023-03-23T07:42:00.830Z,61420.7
2023-03-23T07:43:00.834Z,60413.1
2023-03-23T07:44:00.825Z,59539.8
2023-03-23T07:47:00.825Z,57535.2
2023-03-23T07:48:03.486Z,55101.4
2023-03-23T07:49:00.830Z,52667.6
2023-03-23T07:50:01.071Z,50233.8
2023-03-23T07:51:01.918Z,47597.3
2023-03-23T07:52:00.857Z,44960.7
2023-03-23T07:53:00.829Z,42989.0
2023-03-23T07:54:00.840Z,41017.3
2023-03-23T07:55:15.854Z,39045.5
2023-03-23T07:56:01.032Z,36819.4
2023-03-23T07:57:00.824Z,34593.3
2023-03-23T07:58:00.833Z,33448.5
2023-03-23T08:20:02.402Z,54785.0
2023-03-23T08:22:00.413Z,44197.0
2023-03-23T08:23:00.405Z,49531.5
2023-03-23T08:24:00.403Z,52732.2
2023-03-23T08:25:00.868Z,54866.0
2023-03-23T08:26:00.425Z,56390.1
2023-03-23T08:27:00.408Z,57533.3
2023-03-23T08:28:01.440Z,58422.3
2023-03-23T08:29:00.407Z,59133.6
2023-03-23T08:30:01.320Z,59715.5
2023-03-23T08:32:00.416Z,60610.8
2023-03-23T08:33:00.413Z,60962.6
2023-03-23T08:34:00.413Z,61267.4
2023-03-23T08:35:07.356Z,61984.1
2023-03-23T08:36:00.427Z,63759.5
2023-03-23T08:37:00.422Z,65535.0
2023-03-23T08:43:01.138Z,64990.5
2023-03-23T08:44:00.421Z,64446.1
2023-03-23T08:45:01.241Z,63901.6
2023-03-23T08:51:01.719Z,63632.9
2023-03-23T08:52:00.418Z,63364.1
2023-03-23T08:56:01.796Z,63145.7
2023-03-23T08:57:00.434Z,62927.3
2023-03-23T08:58:00.423Z,63471.8
2023-03-23T08:59:01.513Z,64016.3
2023-03-23T09:06:00.693Z,64829.5
2023-03-23T09:07:00.448Z,65098.2
2023-03-23T09:08:00.425Z,64965.9
2023-03-23T09:09:00.452Z,64833.7
2023-03-23T09:10:00.442Z,64701.4
2023-03-23T09:11:00.634Z,64919.8
2023-03-23T09:12:00.428Z,65138.2
2023-03-23T09:13:00.435Z,65026.1
2023-03-23T09:14:00.425Z,64914.1
2023-03-23T09:15:01.046Z,64802.0
2023-03-23T09:17:00.427Z,62083.5
2023-03-23T09:21:18.851Z,61359.1
2023-03-23T09:22:01.590Z,60634.7
2023-03-23T09:23:00.454Z,60766.9
2023-03-23T09:24:00.434Z,60899.2
2023-03-23T10:30:03.189Z,65535.0
2023-03-23T11:15:01.959Z,65535.0
2023-03-23T11:50:02.136Z,65535.0
2023-03-23T12:30:01.027Z,65535.0
2023-03-23T13:10:01.215Z,65535.0
2023-03-23T13:15:02.132Z,65535.0
2023-03-23T13:45:02.105Z,65535.0
2023-03-23T14:00:04.741Z,65535.0
2023-03-23T14:15:02.424Z,65535.0
2023-03-23T14:45:01.153Z,65535.0
2023-03-23T15:15:06.060Z,65535.0
2023-03-23T15:19:03.354Z,65283.2
2023-03-23T15:22:00.157Z,64422.1
2023-03-23T15:23:03.252Z,64117.4
2023-03-23T15:24:00.155Z,63593.6
2023-03-23T15:25:01.082Z,63069.8
2023-03-23T15:26:00.151Z,62829.3
2023-03-23T15:27:00.213Z,62588.9
2023-03-23T15:28:01.183Z,62348.4
2023-03-23T15:29:00.164Z,61953.2
2023-03-23T15:32:01.252Z,60054.5
2023-03-23T15:33:00.227Z,59302.8
2023-03-23T15:34:00.160Z,58754.7
2023-03-23T15:35:16.338Z,58206.5
2023-03-23T15:36:00.369Z,57708.5
2023-03-23T15:37:01.113Z,57210.4
2023-03-23T15:38:00.224Z,56712.3
2023-03-23T15:39:00.140Z,56152.9
2023-03-23T15:40:00.202Z,55593.5
2023-03-23T15:41:15.201Z,54663.2
2023-03-23T15:42:01.342Z,53732.9
2023-03-23T15:43:00.160Z,52802.5
2023-03-23T15:44:00.162Z,51980.9
2023-03-23T16:11:01.126Z,37890.0
2023-03-23T16:12:01.120Z,37809.3
2023-03-23T16:13:01.100Z,37769.0
2023-03-23T16:14:01.108Z,37573.6
2023-03-23T16:16:01.098Z,37268.3
2023-03-23T16:17:01.178Z,37137.0
2023-03-23T16:18:01.143Z,37034.9
2023-03-23T16:19:01.100Z,36853.6
2023-03-23T16:20:02.370Z,36705.3
2023-03-23T16:21:01.102Z,36471.8
2023-03-23T16:22:01.128Z,36274.2
2023-03-23T16:23:01.124Z,36104.8
2023-03-23T16:24:01.170Z,35870.9
2023-03-23T16:27:06.126Z,34643.7
2023-03-23T16:28:06.161Z,34214.5
2023-03-23T16:29:10.178Z,33784.2
2023-03-23T16:31:01.173Z,32902.1
2023-03-23T16:32:06.112Z,32450.3
2023-03-23T16:33:01.191Z,31998.5
2023-03-23T16:34:01.114Z,31560.5
2023-03-23T16:36:01.108Z,30737.1
2023-03-23T16:37:01.128Z,30351.5
2023-03-23T16:38:07.615Z,29966.0
2023-03-23T16:39:01.112Z,29598.2
2023-03-23T16:40:01.325Z,29230.4
2023-03-23T16:41:01.109Z,28890.1
2023-03-23T16:42:01.160Z,28549.7
2023-03-23T16:43:01.174Z,28209.4
2023-03-23T16:44:01.165Z,27877.6
2023-03-23T16:47:01.152Z,26841.8
2023-03-23T16:48:01.183Z,26489.8
2023-03-23T16:49:01.102Z,26132.7
2023-03-23T16:50:01.326Z,25775.7
2023-03-23T16:51:01.129Z,25376.3
2023-03-23T16:52:01.140Z,24977.0
2023-03-23T16:54:01.174Z,24507.5
2023-03-23T16:56:01.096Z,23601.6
2023-03-23T16:57:01.489Z,23160.7
2023-03-23T16:58:13.638Z,22719.9
2023-03-23T16:59:01.093Z,22192.1
2023-03-23T17:01:01.163Z,21198.1
2023-03-23T17:02:01.109Z,20762.1
2023-03-23T17:03:01.207Z,20326.0
2023-03-23T17:04:01.098Z,19842.7
2023-03-23T17:06:01.091Z,18906.1
2023-03-23T17:07:01.091Z,18473.0
2023-03-23T17:08:01.169Z,18039.9
2023-03-23T17:09:02.200Z,17590.9
2023-03-23T17:11:01.107Z,16714.3
2023-03-23T17:12:01.092Z,16286.9
2023-03-23T17:13:01.130Z,15859.4
2023-03-23T17:14:01.184Z,15441.4
2023-03-23T17:16:01.123Z,14576.5
2023-03-23T17:17:01.102Z,14129.7
2023-03-23T17:18:01.147Z,13682.8
2023-03-23T17:19:01.107Z,13219.9
2023-03-23T17:21:01.108Z,12315.5
2023-03-23T17:22:01.096Z,11873.9
2023-03-23T17:23:01.168Z,11432.3
